Time;durP1;ratioP1;P1;durP2;ratioP2;P2;SDS_P1;SDS_P2;PMS_P1;PMS_P2;Temp;Humidity;BMP_temperature;BMP_pressure;BME280_temperature;BME280_humidity;BME280_pressure;Samples;Min_cycle;Max_cycle;Signal;HPM_P1;HPM_P2
2022/07/03 00:02:10;;;;;;;9.48;6.05;;;;;;;21.07;57.52;100272.84;4456201;32;33472;-85
2022/07/03 00:04:38;;;;;;;9.45;5.28;;;;;;;20.91;58.10;100267.44;4462595;32;33822;-84
2022/07/03 00:07:06;;;;;;;8.80;5.62;;;;;;;20.90;58.29;100265.69;4459042;32;33581;-84
2022/07/03 00:09:33;;;;;;;9.15;6.30;;;;;;;21.09;57.64;100268.47;4445369;32;33776;-85
2022/07/03 00:12:01;;;;;;;8.27;6.12;;;;;;;21.15;57.59;100273.78;4458536;32;33413;-85
2022/07/03 00:14:28;;;;;;;9.35;5.68;;;;;;;21.35;56.98;100269.59;4461109;32;33407;-85
2022/07/03 00:16:56;;;;;;;9.00;5.65;;;;;;;21.32;56.95;100264.28;4459382;32;34434;-85
2022/07/03 00:19:24;;;;;;;8.40;5.68;;;;;;;21.54;56.59;100275.06;4463670;32;34183;-86
2022/07/03 00:22:02;;;;;;;8.60;5.53;;;;;;;21.04;58.23;100268.44;4447550;32;33066;-85
2022/07/03 00:24:45;;;;;;;9.05;6.00;;;;;;;20.91;58.85;100267.44;4453775;32;34663;-85
2022/07/03 00:27:14;;;;;;;9.05;5.97;;;;;;;20.72;59.76;100271.63;4447755;32;33977;-85
2022/07/03 00:29:44;;;;;;;9.38;5.85;;;;;;;20.58;60.31;100258.28;4467787;32;34028;-85
2022/07/03 00:32:13;;;;;;;9.05;6.22;;;;;;;20.73;60.03;100262.00;4467383;32;33461;-85
2022/07/03 00:34:42;;;;;;;10.07;6.25;;;;;;;20.49;60.72;100252.91;4460390;32;32610;-85
2022/07/03 00:37:10;;;;;;;7.85;5.70;;;;;;;20.56;60.80;100259.12;4447220;32;34709;-86
2022/07/03 00:39:42;;;;;;;8.70;5.90;;;;;;;20.56;60.99;100270.53;4440362;32;33034;-85
2022/07/03 00:42:11;;;;;;;12.30;6.35;;;;;;;20.62;60.81;100260.09;4458597;32;34086;-85
2022/07/03 00:44:54;;;;;;;9.45;6.20;;;;;;;20.71;60.74;100269.00;4466085;32;33901;-85
2022/07/03 00:47:23;;;;;;;8.35;5.78;;;;;;;21.32;58.52;100264.28;4446640;32;33951;-85
2022/07/03 00:49:53;;;;;;;10.13;6.43;;;;;;;20.92;59.80;100258.69;4461664;32;33633;-85
2022/07/03 00:55:15;;;;;;;9.80;6.37;;;;;;;22.13;56.23;100269.25;4453876;32;34444;-85
2022/07/03 00:57:45;;;;;;;10.32;6.03;;;;;;;22.03;55.92;100256.91;4450037;32;34029;-85
2022/07/03 01:00:16;;;;;;;9.45;5.90;;;;;;;20.85;59.50;100254.22;4460069;32;33016;-85
2022/07/03 01:02:44;;;;;;;9.45;5.97;;;;;;;20.86;59.73;100248.09;4462355;32;33426;-86
2022/07/03 01:05:23;;;;;;;11.85;6.75;;;;;;;20.69;60.60;100255.81;4465203;32;33708;-86
2022/07/03 01:08:03;;;;;;;9.82;7.10;;;;;;;20.33;62.04;100250.97;4456724;32;33534;-85
2022/07/03 01:10:41;;;;;;;9.50;6.55;;;;;;;20.10;62.82;100254.16;4448623;32;34598;-85
2022/07/03 01:13:22;;;;;;;11.50;7.15;;;;;;;20.03;63.18;100247.09;4462290;32;33266;-84
2022/07/03 01:16:12;;;;;;;9.52;6.85;;;;;;;19.81;64.18;100252.03;4442285;32;33932;-85
2022/07/03 01:18:46;;;;;;;10.88;7.05;;;;;;;19.67;64.80;100245.66;4451351;32;33903;-85
2022/07/03 01:21:42;;;;;;;9.70;6.95;;;;;;;19.52;65.59;100248.06;4446572;32;34463;-85
2022/07/03 01:24:49;;;;;;;10.13;7.00;;;;;;;19.46;66.07;100254.09;4449043;32;33433;-85
2022/07/03 01:27:23;;;;;;;13.07;7.82;;;;;;;19.77;64.79;100252.84;4441397;32;34004;-84
2022/07/03 01:30:13;;;;;;;;;;;;;;;20.34;62.53;100242.19;4441483;32;34703;-85
2022/07/03 01:32:43;;;;;;;9.55;6.78;;;;;;;20.69;61.60;100240.00;4456507;32;33595;-85
2022/07/03 01:35:37;;;;;;;11.12;7.15;;;;;;;21.38;58.96;100240.66;4460406;32;33468;-84
2022/07/03 01:38:07;;;;;;;10.23;6.50;;;;;;;20.46;61.84;100242.34;4464202;32;32871;-85
2022/07/03 01:40:37;;;;;;;9.43;6.53;;;;;;;21.17;59.72;100240.44;4450813;32;32569;-85
2022/07/03 01:43:07;;;;;;;10.32;7.47;;;;;;;20.28;62.83;100239.47;4436516;32;33142;-85
2022/07/03 01:45:43;;;;;;;10.25;7.72;;;;;;;20.15;63.15;100235.84;4447092;32;35042;-84
2022/07/03 01:48:11;;;;;;;10.05;7.05;;;;;;;20.16;63.29;100227.94;4457088;32;33953;-85
2022/07/03 01:50:41;;;;;;;10.80;8.07;;;;;;;20.27;62.90;100230.72;4440500;32;32503;-85
2022/07/03 01:53:10;;;;;;;10.60;7.50;;;;;;;20.40;62.50;100237.03;4444078;32;33819;-85
2022/07/03 01:55:39;;;;;;;11.65;7.07;;;;;;;20.18;63.26;100236.72;4445713;32;33173;-86
2022/07/03 01:58:07;;;;;;;12.55;7.20;;;;;;;20.25;63.13;100236.84;4442434;32;33712;-85
2022/07/03 02:00:40;;;;;;;10.35;7.37;;;;;;;20.30;62.98;100235.12;4445267;32;33642;-85
2022/07/03 02:03:08;;;;;;;10.07;6.82;;;;;;;21.06;60.31;100231.59;4451178;32;31974;-85
2022/07/03 02:05:44;;;;;;;9.77;6.68;;;;;;;21.44;58.81;100231.03;4434698;32;33132;-85
2022/07/03 02:08:34;;;;;;;8.18;6.03;;;;;;;22.04;56.55;100237.56;4459815;32;34748;-86
2022/07/03 02:11:13;;;;;;;10.20;6.45;;;;;;;22.25;55.39;100233.28;4462423;32;34012;-85
2022/07/03 02:13:51;;;;;;;8.77;6.18;;;;;;;22.22;55.29;100238.53;4459394;32;34393;-85
2022/07/03 02:16:21;;;;;;;8.80;6.12;;;;;;;21.60;57.25;100244.34;4456089;32;33216;-85
2022/07/03 02:19:03;;;;;;;9.98;6.28;;;;;;;21.57;57.25;100238.16;4460495;32;34586;-85
2022/07/03 02:21:32;;;;;;;10.73;6.80;;;;;;;21.47;57.81;100236.34;4463090;32;33796;-85
2022/07/03 02:24:18;;;;;;;10.13;6.75;;;;;;;21.52;57.92;100239.91;4441208;32;33627;-85
2022/07/03 02:27:05;;;;;;;8.57;6.47;;;;;;;21.74;57.17;100241.78;4464987;32;33292;-85
2022/07/03 02:29:43;;;;;;;9.80;6.37;;;;;;;22.02;56.15;100246.34;4447759;32;34438;-85
2022/07/03 02:32:13;;;;;;;8.98;6.28;;;;;;;22.13;55.77;100240.22;4455013;32;34075;-85
2022/07/03 02:34:46;;;;;;;9.73;6.68;;;;;;;21.32;57.55;100232.66;4456265;32;34274;-85
2022/07/03 02:37:18;;;;;;;9.07;5.97;;;;;;;19.76;63.71;100242.28;4454711;32;33197;-85
2022/07/03 02:39:51;;;;;;;8.63;6.25;;;;;;;19.92;63.93;100240.78;4461322;32;33823;-85
2022/07/03 02:42:30;;;;;;;11.73;7.22;;;;;;;20.29;62.49;100233.37;4447528;32;33473;-85
2022/07/03 02:45:02;;;;;;;10.18;6.90;;;;;;;18.84;68.75;100242.53;4450274;32;33650;-84
2022/07/03 02:47:32;;;;;;;10.93;7.20;;;;;;;18.75;69.26;100246.69;4466882;32;34070;-84
2022/07/03 02:50:26;;;;;;;12.27;6.82;;;;;;;19.11;67.91;100254.37;4464722;32;33816;-84
2022/07/03 02:53:05;;;;;;;11.07;7.25;;;;;;;19.11;67.88;100257.03;4446045;32;33984;-85
2022/07/03 02:55:46;;;;;;;12.55;7.12;;;;;;;19.41;67.04;100247.88;4461733;32;33954;-85
2022/07/03 02:58:50;;;;;;;11.00;7.45;;;;;;;19.45;66.46;100247.97;4466694;32;33463;-85
2022/07/03 03:01:24;;;;;;;13.35;7.70;;;;;;;18.92;68.84;100255.81;4450877;32;33977;-84
2022/07/03 03:04:09;;;;;;;12.30;8.23;;;;;;;18.90;69.04;100252.25;4460146;32;33571;-85
2022/07/03 03:06:37;;;;;;;12.88;8.00;;;;;;;18.86;69.46;100234.69;4452533;32;34953;-85
2022/07/03 03:09:08;;;;;;;12.52;8.32;;;;;;;18.64;70.74;100239.53;4446561;32;33349;-84
2022/07/03 03:11:42;;;;;;;11.65;7.60;;;;;;;18.67;70.69;100244.81;4437299;32;32499;-85
2022/07/03 03:14:15;;;;;;;;;;;;;;;18.35;72.21;100256.41;4449117;32;33826;-85
2022/07/03 03:16:48;;;;;;;11.52;7.50;;;;;;;18.49;71.76;100259.34;4461282;32;34811;-86
2022/07/03 03:19:19;;;;;;;13.27;8.57;;;;;;;18.54;71.61;100258.53;4449642;32;33496;-85
2022/07/03 03:22:09;;;;;;;12.48;7.68;;;;;;;18.54;71.55;100248.03;4461408;32;33936;-85
2022/07/03 03:24:37;;;;;;;12.63;8.55;;;;;;;18.70;71.07;100245.72;4447709;32;34363;-86
2022/07/03 03:27:05;;;;;;;13.57;8.68;;;;;;;19.10;69.34;100239.47;4452720;32;33519;-85
2022/07/03 03:29:33;;;;;;;11.57;8.20;;;;;;;19.20;69.28;100235.25;4449624;32;33404;-85
2022/07/03 03:32:00;;;;;;;12.95;8.05;;;;;;;18.84;70.42;100234.66;4460329;32;34041;-85
2022/07/03 03:34:32;;;;;;;13.32;8.63;;;;;;;18.69;71.14;100242.22;4437037;32;33529;-86
2022/07/03 03:36:59;;;;;;;12.93;8.95;;;;;;;18.74;71.00;100235.31;4459710;32;32576;-85
2022/07/03 03:39:28;;;;;;;13.48;8.50;;;;;;;18.69;71.29;100241.34;4447214;32;33332;-85
2022/07/03 03:41:55;;;;;;;12.88;8.93;;;;;;;18.54;71.92;100240.19;4462409;32;33863;-86
2022/07/03 03:44:23;;;;;;;15.32;8.57;;;;;;;19.05;69.96;100231.53;4465051;32;33364;-86
2022/07/03 03:46:51;;;;;;;11.95;8.75;;;;;;;19.37;68.56;100231.19;4458270;32;33632;-86
2022/07/03 03:49:18;;;;;;;11.35;8.10;;;;;;;19.53;68.17;100229.69;4447119;32;33191;-84
2022/07/03 03:51:46;;;;;;;14.70;8.65;;;;;;;19.42;68.69;100226.87;4451654;32;32123;-85
2022/07/03 03:54:14;;;;;;;13.52;8.40;;;;;;;19.55;68.16;100237.59;4464139;32;33610;-86
2022/07/03 03:56:41;;;;;;;13.13;7.90;;;;;;;19.30;69.37;100236.34;4449325;32;34343;-85
2022/07/03 03:59:09;;;;;;;12.65;7.95;;;;;;;20.11;66.92;100248.06;4446129;32;31546;-85
2022/07/03 04:01:36;;;;;;;11.65;7.25;;;;;;;20.46;64.63;100258.13;4463654;32;33821;-85
2022/07/03 04:04:04;;;;;;;11.48;7.25;;;;;;;19.13;70.20;100249.16;4464043;32;33770;-85
2022/07/03 04:06:32;;;;;;;11.30;7.03;;;;;;;20.31;64.81;100248.31;4457052;32;33826;-85
2022/07/03 04:08:59;;;;;;;11.95;6.70;;;;;;;20.69;63.49;100255.81;4450943;32;33272;-85
2022/07/03 04:11:27;;;;;;;12.70;7.50;;;;;;;20.75;63.54;100258.50;4462158;32;34353;-85
2022/07/03 04:13:55;;;;;;;12.60;8.05;;;;;;;20.55;64.61;100250.34;4459999;32;33370;-85
2022/07/03 04:16:22;;;;;;;11.90;7.03;;;;;;;20.56;65.04;100249.47;4461209;32;33732;-85
2022/07/03 04:18:50;;;;;;;11.57;8.23;;;;;;;21.16;63.36;100262.41;4450850;32;33196;-85
2022/07/03 04:21:17;;;;;;;12.10;7.55;;;;;;;20.70;64.81;100262.81;4443850;32;33943;-84
2022/07/03 04:23:45;;;;;;;11.02;7.60;;;;;;;20.45;65.42;100256.34;4467826;32;34179;-85
2022/07/03 04:26:12;;;;;;;12.52;8.43;;;;;;;20.89;63.81;100248.09;4457097;32;34498;-85
2022/07/03 04:28:42;;;;;;;15.00;8.55;;;;;;;20.16;66.22;100243.72;4451044;32;33121;-85
2022/07/03 04:31:10;;;;;;;11.40;7.43;;;;;;;19.80;67.36;100245.00;4444030;32;33943;-85
2022/07/03 04:33:37;;;;;;;12.45;8.52;;;;;;;19.77;67.99;100239.69;4463300;32;34764;-86
2022/07/03 04:36:11;;;;;;;11.88;8.40;;;;;;;20.16;66.95;100242.84;4458656;32;33902;-85
2022/07/03 04:38:39;;;;;;;12.52;7.75;;;;;;;19.76;69.26;100242.28;4460130;32;35646;-84
2022/07/03 04:41:06;;;;;;;12.52;8.95;;;;;;;19.90;68.92;100235.50;4464070;32;33947;-85
2022/07/03 04:43:34;;;;;;;11.70;8.60;;;;;;;20.04;68.84;100238.31;4467482;32;33875;-86
2022/07/03 04:46:02;;;;;;;11.10;7.70;;;;;;;20.20;68.48;100240.31;4457487;32;34300;-85
2022/07/03 04:48:30;;;;;;;11.48;8.55;;;;;;;20.22;68.73;100233.31;4447783;32;33366;-86
2022/07/03 04:50:58;;;;;;;11.80;7.93;;;;;;;20.40;68.17;100231.75;4447736;32;32172;-86
2022/07/03 04:53:26;;;;;;;10.20;7.70;;;;;;;20.54;67.83;100227.53;4462417;32;33916;-85
2022/07/03 04:55:53;;;;;;;11.65;7.93;;;;;;;20.57;68.00;100224.94;4464182;32;33877;-84
2022/07/03 04:58:21;;;;;;;15.15;7.60;;;;;;;20.69;67.72;100225.97;4465011;32;34277;-84
2022/07/03 05:00:49;;;;;;;13.10;8.40;;;;;;;20.86;67.10;100221.75;4448011;32;33851;-86
2022/07/03 05:03:16;;;;;;;12.20;8.05;;;;;;;20.92;67.31;100220.91;4442138;32;32656;-85
2022/07/03 05:05:43;;;;;;;11.52;7.65;;;;;;;21.15;66.40;100219.38;4445228;32;33842;-85
2022/07/03 05:08:11;;;;;;;13.32;8.50;;;;;;;21.23;65.58;100224.72;4456303;32;33628;-86
2022/07/03 05:10:39;;;;;;;11.52;8.25;;;;;;;21.26;65.88;100218.56;4441773;32;33026;-86
2022/07/03 05:13:06;;;;;;;12.18;8.13;;;;;;;21.30;65.49;100218.59;4447813;32;34178;-86
2022/07/03 05:15:34;;;;;;;12.65;7.95;;;;;;;21.50;64.87;100225.81;4453587;32;34486;-85
2022/07/03 05:18:01;;;;;;;11.40;8.32;;;;;;;21.66;64.52;100219.78;4451799;32;34088;-85
2022/07/03 05:20:29;;;;;;;12.00;7.80;;;;;;;21.59;64.79;100213.59;4457104;32;33922;-84
2022/07/03 05:22:59;;;;;;;11.40;8.10;;;;;;;21.60;64.63;100206.56;4448937;32;33672;-86
2022/07/03 05:25:27;;;;;;;10.88;7.60;;;;;;;21.58;64.65;100205.66;4447190;32;34713;-85
2022/07/03 05:27:55;;;;;;;12.32;8.35;;;;;;;21.70;63.70;100205.72;4448828;32;34175;-85
2022/07/03 05:30:24;;;;;;;11.80;8.45;;;;;;;21.93;63.28;100205.00;4458529;32;31999;-85
2022/07/03 05:32:53;;;;;;;12.32;8.50;;;;;;;21.80;64.06;100211.94;4447251;32;34576;-85
2022/07/03 05:35:20;;;;;;;12.75;8.02;;;;;;;21.98;63.66;100209.41;4445639;32;32778;-84
2022/07/03 05:37:48;;;;;;;9.48;6.85;;;;;;;22.35;62.15;100209.59;4453544;32;33975;-87
2022/07/03 05:40:16;;;;;;;12.32;8.02;;;;;;;22.96;59.95;100207.94;4455693;32;33453;-85
2022/07/03 05:42:44;;;;;;;10.98;7.53;;;;;;;22.96;59.85;100207.94;4459170;32;32435;-85
2022/07/03 05:45:12;;;;;;;12.18;7.65;;;;;;;23.55;58.41;100211.47;4460816;32;33634;-84
2022/07/03 05:47:39;;;;;;;9.90;7.28;;;;;;;23.81;57.30;100216.72;4458266;32;32118;-85
2022/07/03 05:50:07;;;;;;;9.32;7.32;;;;;;;24.05;56.76;100218.44;4444979;32;33655;-86
2022/07/03 05:52:35;;;;;;;11.23;7.40;;;;;;;23.43;58.61;100222.06;4445693;32;32228;-88
2022/07/03 05:55:07;;;;;;;9.82;7.00;;;;;;;24.25;56.13;100212.16;4433337;32;33585;-87
2022/07/03 05:57:49;;;;;;;11.07;6.93;;;;;;;24.53;55.17;100208.53;4450455;32;32333;-87
2022/07/03 06:00:18;;;;;;;9.63;7.22;;;;;;;24.84;54.40;100213.63;4459135;32;33853;-88
2022/07/03 06:02:46;;;;;;;9.43;7.37;;;;;;;24.80;54.50;100211.91;4430704;32;33674;-86
2022/07/03 06:05:14;;;;;;;10.23;7.22;;;;;;;25.08;53.54;100212.53;4459237;32;33365;-86
2022/07/03 06:07:41;;;;;;;11.55;7.80;;;;;;;24.51;55.08;100214.69;4461017;32;33504;-87
2022/07/03 06:10:09;;;;;;;11.45;7.32;;;;;;;25.02;53.96;100225.84;4457984;32;33837;-86
2022/07/03 06:12:36;;;;;;;10.10;7.00;;;;;;;25.58;52.39;100223.63;4459663;32;34376;-87
2022/07/03 06:15:11;;;;;;;10.70;7.30;;;;;;;25.99;50.28;100213.50;4436966;32;34770;-87
2022/07/03 06:17:39;;;;;;;10.63;7.70;;;;;;;24.39;55.06;100231.50;4443034;32;34223;-86
2022/07/03 06:20:07;;;;;;;10.85;7.43;;;;;;;23.91;56.99;100231.72;4444026;32;31972;-88
2022/07/03 06:22:35;;;;;;;9.48;7.28;;;;;;;25.25;53.65;100238.09;4451413;32;33837;-87
2022/07/03 06:25:03;;;;;;;11.35;7.05;;;;;;;24.76;54.01;100236.63;4431286;32;32991;-86
2022/07/03 06:27:31;;;;;;;9.77;7.20;;;;;;;24.42;55.28;100239.44;4445059;32;33343;-86
2022/07/03 06:29:59;;;;;;;10.23;7.70;;;;;;;25.51;52.52;100229.88;4447641;32;36098;-87
2022/07/03 06:32:26;;;;;;;9.98;6.70;;;;;;;25.90;51.50;100235.66;4460965;32;35104;-87
2022/07/03 06:34:54;;;;;;;10.80;7.55;;;;;;;26.09;51.71;100234.56;4441727;32;34453;-86
2022/07/03 06:37:22;;;;;;;10.15;7.35;;;;;;;24.85;53.03;100223.31;4463186;32;32710;-87
2022/07/03 06:39:49;;;;;;;9.32;7.30;;;;;;;24.64;54.50;100215.50;4447040;32;33982;-87
2022/07/03 06:42:17;;;;;;;12.52;7.65;;;;;;;24.89;54.26;100222.41;4460045;32;35942;-88
2022/07/03 06:45:06;;;;;;;8.73;6.85;;;;;;;26.12;50.78;100214.22;4447977;32;34283;-86
2022/07/03 06:47:40;;;;;;;10.32;6.80;;;;;;;26.01;51.47;100217.88;4457296;32;33500;-87
2022/07/03 06:50:07;;;;;;;9.68;6.85;;;;;;;26.50;50.50;100211.03;4443908;32;32720;-84
2022/07/03 06:52:35;;;;;;;10.48;7.05;;;;;;;26.74;49.01;100212.50;4433761;32;36357;-87
2022/07/03 06:55:03;;;;;;;9.93;7.15;;;;;;;25.87;52.32;100210.03;4443439;32;33958;-84
2022/07/03 06:57:31;;;;;;;10.30;7.03;;;;;;;25.82;51.75;100217.16;4446573;32;31649;-83
2022/07/03 07:00:00;;;;;;;13.55;7.35;;;;;;;25.56;52.62;100212.16;4443714;32;33992;-83
2022/07/03 07:02:27;;;;;;;14.20;7.28;;;;;;;25.68;52.15;100208.50;4444853;32;34618;-84
2022/07/03 07:04:55;;;;;;;9.00;7.07;;;;;;;25.62;52.52;100209.44;4455944;32;34085;-85
2022/07/03 07:07:22;;;;;;;10.00;7.70;;;;;;;25.72;51.50;100204.91;4455904;32;33441;-83
2022/07/03 07:09:50;;;;;;;9.02;7.00;;;;;;;26.23;50.84;100201.66;4461075;32;32346;-82
2022/07/03 07:12:17;;;;;;;9.98;6.95;;;;;;;27.04;49.44;100197.88;4454901;32;34902;-82
2022/07/03 07:14:45;;;;;;;11.82;7.35;;;;;;;27.49;48.55;100199.78;4454589;32;33795;-82
2022/07/03 07:17:13;;;;;;;10.43;7.07;;;;;;;27.61;47.90;100204.84;4460155;32;33397;-83
2022/07/03 07:19:40;;;;;;;10.57;6.97;;;;;;;27.71;47.48;100199.38;4442840;32;32303;-81
2022/07/03 07:22:08;;;;;;;12.10;7.00;;;;;;;27.45;47.25;100198.94;4460108;32;33595;-82
2022/07/03 07:24:36;;;;;;;11.90;6.85;;;;;;;26.54;49.96;100193.28;4454482;32;34316;-80
2022/07/03 07:27:04;;;;;;;10.38;7.32;;;;;;;26.31;50.15;100199.81;4457095;32;33345;-78
2022/07/03 07:29:31;;;;;;;13.25;7.82;;;;;;;26.20;50.27;100196.41;4458498;32;34170;-79
2022/07/03 07:31:59;;;;;;;11.77;7.35;;;;;;;26.26;51.20;100199.00;4461862;32;34768;-82
2022/07/03 07:34:26;;;;;;;10.32;7.05;;;;;;;26.70;49.86;100207.28;4458460;32;33446;-80
2022/07/03 07:36:54;;;;;;;11.30;7.43;;;;;;;26.66;48.81;100206.44;4457425;32;32992;-83
2022/07/03 07:39:22;;;;;;;11.77;7.07;;;;;;;27.00;48.75;100205.91;4460686;32;33484;-83
2022/07/03 07:41:49;;;;;;;8.95;7.32;;;;;;;26.96;48.83;100206.84;4461522;32;34635;-85
2022/07/03 07:44:17;;;;;;;9.23;6.55;;;;;;;26.99;47.93;100198.84;4466743;32;33932;-82
2022/07/03 07:46:46;;;;;;;8.57;6.55;;;;;;;27.12;48.06;100199.50;4448993;32;33228;-81
2022/07/03 07:49:14;;;;;;;10.57;7.40;;;;;;;27.08;47.87;100203.97;4458743;32;33498;-81
2022/07/03 07:51:41;;;;;;;8.75;6.80;;;;;;;27.20;46.88;100203.78;4464506;32;33919;-84
2022/07/03 07:54:09;;;;;;;11.40;6.72;;;;;;;28.22;45.66;100201.88;4459187;32;33886;-82
2022/07/03 07:56:36;;;;;;;10.90;6.75;;;;;;;26.99;47.11;100212.12;4447113;32;33583;-83
2022/07/03 07:59:04;;;;;;;9.50;6.82;;;;;;;27.32;46.84;100207.19;4461542;32;34648;-83
2022/07/03 08:07:24;;;;;;;10.23;7.00;;;;;;;27.91;45.50;100207.88;4407082;32;32975;-81
2022/07/03 08:09:53;;;;;;;10.00;6.97;;;;;;;28.17;45.10;100209.13;4405197;32;33914;-79
2022/07/03 08:12:20;;;;;;;8.45;6.62;;;;;;;28.63;43.61;100210.81;4430818;32;32050;-80
2022/07/03 08:14:48;;;;;;;10.48;6.60;;;;;;;29.67;42.51;100209.09;4462856;32;33706;-82
2022/07/03 08:17:15;;;;;;;9.50;6.60;;;;;;;30.24;40.61;100208.41;4445762;32;34199;-81
2022/07/03 08:19:43;;;;;;;9.98;6.60;;;;;;;30.48;39.49;100200.56;4458416;32;33871;-82
2022/07/03 08:22:11;;;;;;;8.57;6.95;;;;;;;30.80;39.44;100196.03;4460309;32;34378;-81
2022/07/03 08:24:39;;;;;;;10.48;6.90;;;;;;;30.86;39.06;100203.84;4458892;32;35428;-81
2022/07/03 08:27:11;;;;;;;10.00;6.87;;;;;;;30.58;39.47;100202.06;4456955;32;34076;-80
2022/07/03 08:29:39;;;;;;;9.93;7.22;;;;;;;29.86;41.17;100214.84;4446628;32;33982;-81
2022/07/03 08:32:07;;;;;;;8.73;6.43;;;;;;;30.30;40.94;100200.19;4458550;32;34024;-81
2022/07/03 08:34:34;;;;;;;11.00;7.10;;;;;;;29.26;41.49;100205.75;4458232;32;34530;-81
2022/07/03 08:37:03;;;;;;;10.98;6.55;;;;;;;29.80;41.73;100210.56;4460222;32;33712;-81
2022/07/03 08:39:30;;;;;;;9.00;6.40;;;;;;;29.82;41.21;100203.37;4461073;32;34067;-79
2022/07/03 08:41:58;;;;;;;10.63;6.47;;;;;;;30.08;41.36;100193.75;4459524;32;34548;-79
2022/07/03 08:44:26;;;;;;;13.13;6.80;;;;;;;29.75;41.23;100201.81;4454417;32;33933;-79
2022/07/03 08:46:55;;;;;;;12.10;6.82;;;;;;;29.77;41.51;100195.50;4445613;32;33270;-80
2022/07/03 08:49:23;;;;;;;8.60;6.37;;;;;;;29.83;40.40;100194.47;4445787;32;32716;-80
2022/07/03 08:51:52;;;;;;;8.48;6.07;;;;;;;30.30;39.96;100194.84;4448571;32;34448;-81
2022/07/03 08:54:19;;;;;;;9.45;6.53;;;;;;;31.27;38.24;100190.91;4444912;32;33989;-82
2022/07/03 08:56:47;;;;;;;9.52;6.18;;;;;;;31.82;36.65;100196.13;4458953;32;33415;-81
2022/07/03 08:59:15;;;;;;;9.95;6.57;;;;;;;31.75;36.82;100187.44;4456326;32;33912;-80
2022/07/03 09:01:45;;;;;;;9.60;5.97;;;;;;;32.36;36.12;100191.44;4446533;32;33936;-81
2022/07/03 09:04:13;;;;;;;8.40;6.45;;;;;;;32.78;35.53;100188.00;4461413;32;32944;-80
2022/07/03 09:06:43;;;;;;;7.50;6.00;;;;;;;32.46;35.37;100187.47;4459228;32;33203;-83
2022/07/03 09:09:10;;;;;;;8.02;5.03;;;;;;;32.51;35.72;100181.00;4458323;32;34049;-79
2022/07/03 09:11:38;;;;;;;6.25;4.65;;;;;;;30.38;35.03;100181.28;4459581;32;33833;-80
2022/07/03 09:14:06;;;;;;;9.27;5.57;;;;;;;30.50;35.16;100180.00;4459184;32;32670;-78
2022/07/03 09:16:35;;;;;;;7.12;4.80;;;;;;;31.34;32.32;100187.09;4464289;32;32042;-81
2022/07/03 09:19:04;;;;;;;7.65;5.10;;;;;;;31.53;33.11;100176.63;4459952;32;34072;-80
2022/07/03 09:21:39;;;;;;;7.12;5.50;;;;;;;32.02;33.23;100165.94;4447815;32;33628;-78
2022/07/03 09:24:08;;;;;;;9.30;5.55;;;;;;;31.20;34.56;100171.53;4449582;32;33834;-79
2022/07/03 09:26:51;;;;;;;7.68;4.60;;;;;;;31.30;34.68;100167.59;4459937;32;33259;-80
2022/07/03 09:29:19;;;;;;;9.82;5.05;;;;;;;32.08;33.51;100166.56;4462042;32;34665;-81
2022/07/03 09:31:55;;;;;;;7.03;4.68;;;;;;;33.12;31.98;100170.53;4459451;32;34695;-80
2022/07/03 09:34:24;;;;;;;8.40;5.47;;;;;;;32.89;32.13;100162.47;4460025;32;33769;-82
2022/07/03 09:36:52;;;;;;;8.07;5.25;;;;;;;32.65;31.39;100160.81;4445167;32;31833;-79
2022/07/03 09:39:30;;;;;;;7.87;5.53;;;;;;;32.48;32.60;100153.41;4460163;32;33185;-78
2022/07/03 09:42:11;;;;;;;9.98;5.62;;;;;;;32.77;31.14;100156.75;4442615;32;33703;-82
2022/07/03 09:44:46;;;;;;;6.82;4.50;;;;;;;32.05;32.66;100155.13;4457995;32;33609;-80
2022/07/03 09:47:19;;;;;;;8.05;5.05;;;;;;;33.44;31.39;100151.19;4454389;32;33393;-79
2022/07/03 09:49:56;;;;;;;9.50;5.05;;;;;;;33.50;30.27;100140.19;4447042;32;32430;-82
2022/07/03 09:52:41;;;;;;;6.75;4.93;;;;;;;33.84;30.35;100137.78;4459349;32;33703;-80
2022/07/03 09:55:09;;;;;;;8.32;5.07;;;;;;;33.88;29.87;100131.31;4461586;32;34634;-79
2022/07/03 09:57:43;;;;;;;9.27;4.90;;;;;;;33.82;29.51;100132.50;4459685;32;33448;-80
2022/07/03 10:00:20;;;;;;;6.65;5.07;;;;;;;33.75;29.91;100139.09;4461823;32;34765;-79
2022/07/03 10:02:55;;;;;;;6.68;4.75;;;;;;;34.55;29.29;100129.94;4446044;32;32731;-80
2022/07/03 10:05:27;;;;;;;6.22;4.80;;;;;;;33.75;29.33;100128.34;4460189;32;33524;-78
2022/07/03 10:08:01;;;;;;;8.27;4.85;;;;;;;34.65;28.55;100125.88;4461897;32;33484;-80
2022/07/03 10:10:31;;;;;;;6.35;4.90;;;;;;;33.99;29.90;100125.47;4461107;32;33621;-80
2022/07/03 10:13:00;;;;;;;9.38;4.43;;;;;;;34.53;28.55;100121.06;4455681;32;32994;-79
2022/07/03 10:15:28;;;;;;;7.53;4.75;;;;;;;33.80;30.03;100123.62;4459991;32;33745;-81
2022/07/03 10:17:58;;;;;;;8.45;4.60;;;;;;;34.64;28.04;100120.56;4459806;32;33302;-81
2022/07/03 10:20:42;;;;;;;5.95;3.90;;;;;;;34.59;28.50;100115.37;4445616;32;34576;-79
2022/07/03 10:23:10;;;;;;;7.90;3.95;;;;;;;34.61;27.23;100112.63;4460483;32;34545;-79
2022/07/03 10:25:42;;;;;;;5.72;4.15;;;;;;;34.54;27.09;100109.38;4458209;32;34545;-80
2022/07/03 10:28:11;;;;;;;6.50;4.10;;;;;;;34.10;28.17;100112.38;4463016;32;34088;-79
2022/07/03 10:30:40;;;;;;;6.50;3.87;;;;;;;34.70;27.73;100105.97;4443008;32;33911;-79
2022/07/03 10:33:07;;;;;;;5.72;3.85;;;;;;;34.88;27.44;100104.13;4432390;32;34097;-79
2022/07/03 10:35:40;;;;;;;17.70;4.30;;;;;;;34.79;26.54;100094.69;4458455;32;33888;-80
2022/07/03 10:38:13;;;;;;;9.00;3.85;;;;;;;35.33;26.50;100090.12;4445024;32;32969;-78
2022/07/03 10:46:25;;;;;;;12.30;3.40;;;;;;;34.88;26.09;100094.22;4444569;32;31807;-79
2022/07/03 10:49:00;;;;;;;6.50;3.40;;;;;;;35.12;26.41;100091.22;4453878;32;35893;-78
2022/07/03 10:51:30;;;;;;;6.03;3.30;;;;;;;34.73;25.83;100079.78;4445395;32;33836;-78
2022/07/03 10:54:20;;;;;;;5.47;3.12;;;;;;;34.63;26.95;100076.62;4458786;32;33751;-81
2022/07/03 10:57:00;;;;;;;6.95;3.58;;;;;;;34.35;27.29;100089.72;4463121;32;33927;-78
2022/07/03 10:59:44;;;;;;;5.82;3.20;;;;;;;34.30;27.30;100083.69;4461072;32;33425;-80
2022/07/03 11:02:59;;;;;;;9.57;3.62;;;;;;;34.20;27.37;100078.75;4442556;32;34146;-79
2022/07/03 11:05:35;;;;;;;;;;;;;;;34.92;27.00;100084.19;4417765;32;33375;-80
2022/07/03 11:08:04;;;;;;;6.45;3.60;;;;;;;34.29;27.72;100074.78;4463961;32;34925;-79
2022/07/03 11:10:34;;;;;;;11.70;3.78;;;;;;;34.07;28.10;100074.91;4460320;32;33047;-78
2022/07/03 11:13:12;;;;;;;6.62;3.58;;;;;;;35.07;26.72;100066.38;4444917;32;33894;-78
2022/07/03 11:15:41;;;;;;;5.00;3.50;;;;;;;33.80;27.98;100072.56;4462494;32;34075;-80
2022/07/03 11:18:13;;;;;;;6.57;3.90;;;;;;;33.62;29.31;100068.03;4461001;32;34562;-77
2022/07/03 11:20:41;;;;;;;6.43;3.80;;;;;;;33.33;29.41;100064.88;4461754;32;34037;-81
2022/07/03 11:23:27;;;;;;;8.20;4.28;;;;;;;33.19;29.77;100073.56;4457471;32;20103;-78
2022/07/03 11:26:00;;;;;;;5.93;3.58;;;;;;;33.03;30.28;100062.59;4460018;32;33941;-79
2022/07/03 11:28:33;;;;;;;12.18;3.85;;;;;;;33.63;29.53;100051.00;4460211;32;34688;-79
2022/07/03 11:31:08;;;;;;;10.32;4.32;;;;;;;34.44;28.51;100057.87;4459999;32;32948;-79
2022/07/03 11:33:46;;;;;;;8.20;4.20;;;;;;;34.50;28.54;100061.19;4461314;32;33809;-81
2022/07/03 11:36:17;;;;;;;7.45;3.87;;;;;;;34.88;27.68;100051.19;4460060;32;34561;-80
2022/07/03 11:38:52;;;;;;;9.10;4.28;;;;;;;35.72;26.98;100048.53;4461928;32;34408;-80
2022/07/03 11:41:20;;;;;;;10.90;4.18;;;;;;;35.42;27.39;100046.50;4462044;32;33452;-80
2022/07/03 11:44:01;;;;;;;6.18;3.83;;;;;;;35.56;26.93;100037.69;4447711;32;33953;-80
2022/07/03 11:46:39;;;;;;;7.93;4.00;;;;;;;35.30;27.74;100036.41;4448254;32;34002;-79
2022/07/03 11:49:11;;;;;;;5.87;3.65;;;;;;;34.64;27.92;100037.16;4461775;32;33684;-81
2022/07/03 11:51:53;;;;;;;6.00;3.65;;;;;;;35.17;27.79;100030.81;4461277;32;33832;-80
2022/07/03 11:54:21;;;;;;;5.53;3.60;;;;;;;34.93;28.12;100030.28;4458624;32;34251;-80
2022/07/03 11:56:48;;;;;;;8.10;3.70;;;;;;;35.71;27.25;100022.50;4465123;32;33806;-82